createdAt,value
2022-11-08T00:02:09.757Z,85.93
2022-11-08T00:04:36.710Z,85.02
2022-11-08T00:07:22.291Z,85.80
2022-11-08T00:10:07.803Z,87.14
2022-11-08T00:12:53.561Z,86.84
2022-11-08T00:15:20.389Z,87.49
2022-11-08T00:17:47.319Z,86.89
2022-11-08T00:20:14.343Z,88.14
2022-11-08T00:22:41.460Z,87.75
2022-11-08T00:25:10.007Z,86.48
2022-11-08T00:27:36.862Z,86.36
2022-11-08T00:30:04.377Z,86.19
2022-11-08T00:32:31.297Z,86.24
2022-11-08T00:34:58.149Z,86.30
2022-11-08T00:37:25.979Z,86.70
2022-11-08T00:39:52.908Z,86.87
2022-11-08T00:42:19.755Z,86.28
2022-11-08T00:44:46.779Z,86.71
2022-11-08T00:47:13.938Z,87.01
2022-11-08T00:49:40.779Z,87.34
2022-11-08T00:52:07.707Z,87.52
2022-11-08T00:54:35.146Z,89.14
2022-11-08T00:57:02.037Z,88.95
2022-11-08T00:59:28.938Z,88.43
2022-11-08T01:01:55.920Z,89.26
2022-11-08T01:04:22.847Z,88.91
2022-11-08T01:06:49.745Z,89.64
2022-11-08T01:09:16.772Z,89.22
2022-11-08T01:11:46.521Z,89.81
2022-11-08T01:14:14.816Z,89.63
2022-11-08T01:16:42.285Z,89.53
2022-11-08T01:19:09.774Z,89.73
2022-11-08T01:21:37.417Z,89.08
2022-11-08T01:24:04.704Z,88.66
2022-11-08T01:26:31.614Z,89.44
2022-11-08T01:28:59.172Z,89.87
2022-11-08T01:31:29.735Z,88.20
2022-11-08T01:33:57.612Z,89.28
2022-11-08T01:36:26.159Z,88.87
2022-11-08T01:38:54.024Z,88.76
2022-11-08T01:41:23.011Z,89.03
2022-11-08T01:43:59.628Z,89.03
2022-11-08T01:46:39.696Z,88.50
2022-11-08T01:49:43.487Z,89.53
2022-11-08T01:52:16.015Z,90.06
2022-11-08T01:55:01.286Z,89.39
2022-11-08T01:57:51.260Z,90.14
2022-11-08T02:00:18.540Z,89.21
2022-11-08T02:02:52.707Z,89.45
2022-11-08T02:05:26.206Z,90.42
2022-11-08T02:08:24.571Z,90.35
2022-11-08T02:10:53.176Z,90.80
2022-11-08T02:13:24.103Z,90.88
2022-11-08T02:15:51.143Z,91.39
2022-11-08T02:18:19.679Z,90.49
2022-11-08T02:21:17.950Z,90.90
2022-11-08T02:23:47.501Z,90.99
2022-11-08T02:26:16.319Z,90.95
2022-11-08T02:28:45.882Z,90.22
2022-11-08T02:31:14.762Z,90.08
2022-11-08T02:33:42.360Z,90.12
2022-11-08T02:36:12.814Z,90.24
2022-11-08T02:38:53.467Z,90.46
2022-11-08T02:41:20.372Z,91.08
2022-11-08T02:43:47.305Z,90.34
2022-11-08T02:46:14.283Z,90.26
2022-11-08T02:48:41.128Z,89.91
2022-11-08T02:51:08.014Z,90.85
2022-11-08T02:53:34.954Z,90.24
2022-11-08T02:56:01.811Z,91.04
2022-11-08T02:58:28.781Z,91.28
2022-11-08T03:00:55.766Z,90.93
2022-11-08T03:03:22.778Z,91.37
2022-11-08T03:05:49.654Z,90.29
2022-11-08T03:08:17.207Z,91.13
2022-11-08T03:10:44.291Z,91.58
2022-11-08T03:13:11.262Z,91.00
2022-11-08T03:15:38.130Z,90.90
2022-11-08T03:18:05.490Z,90.95
2022-11-08T03:20:33.353Z,91.24
2022-11-08T03:23:03.032Z,91.55
2022-11-08T03:25:30.508Z,91.28
2022-11-08T03:28:03.087Z,91.20
2022-11-08T03:30:30.348Z,90.74
2022-11-08T03:32:57.269Z,91.33
2022-11-08T03:35:24.678Z,91.55
2022-11-08T03:37:55.825Z,91.63
2022-11-08T03:40:23.635Z,91.25
2022-11-08T03:42:50.719Z,91.83
2022-11-08T03:45:17.705Z,91.16
2022-11-08T03:47:46.891Z,92.44
2022-11-08T03:50:15.561Z,92.13
2022-11-08T03:52:43.053Z,91.75
2022-11-08T03:55:11.469Z,92.07
2022-11-08T03:57:40.194Z,91.80
2022-11-08T04:00:09.063Z,91.26
2022-11-08T04:02:38.621Z,90.56
2022-11-08T04:05:07.173Z,90.62
2022-11-08T04:07:34.399Z,90.94
2022-11-08T04:10:02.086Z,91.43
2022-11-08T04:12:47.497Z,90.87
2022-11-08T04:15:17.688Z,90.68
2022-11-08T04:18:09.701Z,90.97
2022-11-08T04:21:12.937Z,91.26
2022-11-08T04:23:39.843Z,91.03
2022-11-08T04:26:08.727Z,90.77
2022-11-08T04:28:37.537Z,91.06
2022-11-08T04:31:10.812Z,90.47
2022-11-08T04:33:37.817Z,90.38
2022-11-08T04:36:07.922Z,90.19
2022-11-08T04:38:35.469Z,89.62
2022-11-08T04:41:06.998Z,90.20
2022-11-08T04:43:34.094Z,88.87
2022-11-08T04:46:05.944Z,89.55
2022-11-08T04:48:33.243Z,89.25
2022-11-08T04:51:08.810Z,88.95
2022-11-08T04:53:35.874Z,88.37
2022-11-08T04:56:08.315Z,88.76
2022-11-08T04:58:37.482Z,89.00
2022-11-08T05:01:06.765Z,89.02
2022-11-08T05:03:34.161Z,88.05
2022-11-08T05:06:06.712Z,88.05
2022-11-08T05:08:34.262Z,88.47
2022-11-08T05:11:06.269Z,87.70
2022-11-08T05:13:33.883Z,87.45
2022-11-08T05:16:06.511Z,87.50
2022-11-08T05:18:34.192Z,86.47
2022-11-08T05:21:20.521Z,86.51
2022-11-08T05:23:49.598Z,85.91
2022-11-08T05:26:18.083Z,86.66
2022-11-08T05:28:45.407Z,86.75
2022-11-08T05:31:12.551Z,86.77
2022-11-08T05:33:39.526Z,86.82
2022-11-08T05:36:12.105Z,88.25
2022-11-08T05:38:39.763Z,88.06
2022-11-08T05:41:13.640Z,87.20
2022-11-08T05:43:40.978Z,87.23
2022-11-08T05:46:08.392Z,86.23
2022-11-08T05:48:35.552Z,86.43
2022-11-08T05:51:02.598Z,87.40
2022-11-08T05:53:29.519Z,86.65
2022-11-08T05:56:00.669Z,86.95
2022-11-08T05:58:28.493Z,86.32
2022-11-08T06:01:05.896Z,85.23
2022-11-08T06:03:33.312Z,84.28
2022-11-08T06:06:05.981Z,83.68
2022-11-08T06:08:33.120Z,83.91
2022-11-08T06:11:08.283Z,84.08
2022-11-08T06:13:35.550Z,83.99
2022-11-08T06:16:05.428Z,84.29
2022-11-08T06:18:33.650Z,84.89
2022-11-08T06:21:02.463Z,84.66
2022-11-08T06:23:29.698Z,85.38
2022-11-08T06:25:56.740Z,85.71
2022-11-08T06:28:24.157Z,86.29
2022-11-08T06:30:51.208Z,86.75
2022-11-08T06:33:19.546Z,86.37
2022-11-08T06:35:47.345Z,85.14
2022-11-08T06:38:14.260Z,83.84
2022-11-08T06:40:41.129Z,83.23
2022-11-08T06:43:08.035Z,82.20
2022-11-08T06:45:37.817Z,81.05
2022-11-08T06:48:06.455Z,80.38
2022-11-08T06:50:34.419Z,79.26
2022-11-08T06:53:03.944Z,78.22
2022-11-08T06:55:30.956Z,77.67
2022-11-08T06:57:57.978Z,76.41
2022-11-08T07:00:25.634Z,75.73
2022-11-08T07:02:57.450Z,75.16
2022-11-08T07:05:25.701Z,74.43
2022-11-08T07:07:52.808Z,73.89
2022-11-08T07:10:21.716Z,74.11
2022-11-08T07:12:50.924Z,73.78
2022-11-08T07:15:17.945Z,73.11
2022-11-08T07:17:44.821Z,72.40
2022-11-08T07:20:12.270Z,71.72
2022-11-08T07:22:39.156Z,72.42
2022-11-08T07:25:06.699Z,71.89
2022-11-08T07:27:34.090Z,72.14
2022-11-08T07:30:01.171Z,72.32
2022-11-08T07:32:28.156Z,72.63
2022-11-08T07:34:55.093Z,72.33
2022-11-08T07:37:22.005Z,72.41
2022-11-08T07:39:48.824Z,71.64
2022-11-08T07:42:15.647Z,71.79
2022-11-08T07:44:45.578Z,71.54
2022-11-08T07:47:12.424Z,71.45
2022-11-08T07:49:39.275Z,70.83
2022-11-08T07:52:06.183Z,70.19
2022-11-08T07:54:33.140Z,68.70
2022-11-08T07:57:00.001Z,69.02
2022-11-08T07:59:27.060Z,68.48
2022-11-08T08:01:54.006Z,69.21
2022-11-08T08:04:20.948Z,68.89
2022-11-08T08:06:47.780Z,69.01
2022-11-08T08:09:14.680Z,69.42
2022-11-08T08:11:41.522Z,69.37
2022-11-08T08:14:08.436Z,68.84
2022-11-08T08:16:36.975Z,69.00
2022-11-08T08:19:04.998Z,67.67
2022-11-08T08:21:32.193Z,67.09
2022-11-08T08:23:59.092Z,66.38
2022-11-08T08:26:25.960Z,65.71
2022-11-08T08:28:52.825Z,65.87
2022-11-08T08:31:19.681Z,64.83
2022-11-08T08:33:46.547Z,65.16
2022-11-08T08:36:13.514Z,65.00
2022-11-08T08:38:44.489Z,63.72
2022-11-08T08:41:11.832Z,63.21
2022-11-08T08:43:38.870Z,62.11
2022-11-08T08:46:06.660Z,61.59
2022-11-08T08:48:33.975Z,61.85
2022-11-08T08:51:00.846Z,60.56
2022-11-08T08:53:27.812Z,60.46
2022-11-08T08:55:54.837Z,60.75
2022-11-08T08:58:22.779Z,59.98
2022-11-08T09:03:36.808Z,60.69
2022-11-08T09:06:04.294Z,59.79
2022-11-08T09:08:31.364Z,59.92
2022-11-08T09:11:00.326Z,60.01
2022-11-08T09:13:28.769Z,59.34
2022-11-08T09:15:55.780Z,58.99
2022-11-08T09:18:23.384Z,58.93
2022-11-08T09:20:50.480Z,58.80
2022-11-08T09:23:18.147Z,59.39
2022-11-08T09:25:45.281Z,58.90
2022-11-08T09:28:12.339Z,58.52
2022-11-08T09:30:39.206Z,58.16
2022-11-08T09:33:06.215Z,57.01
2022-11-08T09:35:33.753Z,57.83
2022-11-08T09:38:00.709Z,58.37
2022-11-08T09:40:38.551Z,58.64
2022-11-08T09:43:24.855Z,57.89
2022-11-08T10:17:42.220Z,56.34
2022-11-08T10:20:39.150Z,56.40
2022-11-08T10:23:29.107Z,54.30
2022-11-08T10:26:00.652Z,53.28
2022-11-08T10:28:50.977Z,51.48
2022-11-08T10:31:21.294Z,51.00
2022-11-08T10:33:51.782Z,50.46
2022-11-08T10:36:21.692Z,50.05
2022-11-08T10:39:06.566Z,49.50
2022-11-08T10:41:54.952Z,50.37
2022-11-08T10:44:24.662Z,49.26
2022-11-08T10:46:59.511Z,48.45
2022-11-08T10:49:30.782Z,47.40
2022-11-08T10:52:00.010Z,47.84
2022-11-08T10:54:55.021Z,48.31
2022-11-08T10:57:33.462Z,47.39
2022-11-08T11:00:29.855Z,47.26
2022-11-08T11:03:23.428Z,48.56
2022-11-08T11:06:05.218Z,53.02
2022-11-08T11:08:33.357Z,52.34
2022-11-08T11:11:24.303Z,52.02
2022-11-08T11:14:18.426Z,52.23
2022-11-08T11:17:03.436Z,53.15
2022-11-08T11:19:30.833Z,52.31
2022-11-08T11:22:04.848Z,52.04
2022-11-08T11:24:32.425Z,52.58
2022-11-08T11:27:21.799Z,52.56
2022-11-08T11:29:48.650Z,55.01
2022-11-08T11:32:26.669Z,53.71
2022-11-08T11:34:56.392Z,54.10
2022-11-08T11:37:35.183Z,53.83
2022-11-08T11:40:20.023Z,54.21
2022-11-08T11:43:12.539Z,54.34
2022-11-08T11:45:42.380Z,53.96
2022-11-08T11:48:22.948Z,53.62
2022-11-08T11:50:50.283Z,53.69
2022-11-08T11:53:27.133Z,53.76
2022-11-08T11:56:12.866Z,54.57
2022-11-08T11:59:01.067Z,54.57
2022-11-08T12:01:43.054Z,53.63
2022-11-08T12:04:38.545Z,54.21
2022-11-08T12:07:17.261Z,55.27
2022-11-08T12:09:56.029Z,55.37
2022-11-08T12:12:28.398Z,55.47
2022-11-08T12:15:10.625Z,55.13
2022-11-08T12:17:56.146Z,54.63
2022-11-08T12:20:42.321Z,55.30
2022-11-08T12:23:30.725Z,54.99
2022-11-08T12:26:26.791Z,54.21
2022-11-08T12:28:59.570Z,54.72
2022-11-08T12:31:58.911Z,55.15
2022-11-08T12:35:02.901Z,54.43
2022-11-08T12:37:48.304Z,55.73
2022-11-08T12:40:38.827Z,55.85
2022-11-08T12:43:24.253Z,56.22
2022-11-08T12:46:11.202Z,55.55
2022-11-08T12:49:11.901Z,55.70
2022-11-08T12:52:02.262Z,56.61
2022-11-08T12:54:40.762Z,56.09
2022-11-08T12:57:16.899Z,57.30
2022-11-08T12:59:53.128Z,57.03
2022-11-08T13:02:30.403Z,56.99
2022-11-08T13:05:20.163Z,57.32
2022-11-08T13:07:52.868Z,57.67
2022-11-08T13:10:23.121Z,58.54
2022-11-08T13:12:52.464Z,58.54
2022-11-08T13:15:25.264Z,57.39
2022-11-08T13:18:07.573Z,57.57
2022-11-08T13:20:40.566Z,58.00
2022-11-08T13:23:15.700Z,58.00
2022-11-08T13:25:43.953Z,57.32
2022-11-08T13:28:39.631Z,56.55
2022-11-08T13:31:19.094Z,56.51
2022-11-08T13:34:28.139Z,56.86
2022-11-08T13:37:31.379Z,57.08
2022-11-08T13:40:27.720Z,57.83
2022-11-08T13:43:18.720Z,57.24
2022-11-08T13:45:46.370Z,57.20
2022-11-08T13:48:28.441Z,57.78
2022-11-08T13:50:56.529Z,57.48
2022-11-08T13:53:27.246Z,57.28
2022-11-08T13:56:04.697Z,57.00
2022-11-08T13:58:43.347Z,56.75
2022-11-08T14:01:19.066Z,57.90
2022-11-08T14:03:45.937Z,57.55
2022-11-08T14:06:36.378Z,59.32
2022-11-08T14:09:29.285Z,58.85
2022-11-08T14:12:03.139Z,58.74
2022-11-08T14:14:38.208Z,59.08
2022-11-08T14:17:23.308Z,58.99
2022-11-08T14:19:51.358Z,59.55
2022-11-08T14:22:25.294Z,60.47
2022-11-08T14:24:54.535Z,62.20
2022-11-08T14:27:40.963Z,62.50
2022-11-08T14:30:23.496Z,62.76
2022-11-08T14:33:19.913Z,63.55
2022-11-08T14:36:07.927Z,63.29
2022-11-08T14:38:45.091Z,63.29
2022-11-08T14:41:16.731Z,63.83
2022-11-08T14:43:45.505Z,63.36
2022-11-08T14:46:29.074Z,64.01
2022-11-08T14:48:57.424Z,64.13
2022-11-08T14:51:26.384Z,64.86
2022-11-08T14:53:56.804Z,65.01
2022-11-08T14:56:26.193Z,64.99
2022-11-08T14:58:54.837Z,65.41
2022-11-08T15:01:26.992Z,65.29
2022-11-08T15:04:00.886Z,66.12
2022-11-08T15:06:42.420Z,66.10
2022-11-08T15:09:34.013Z,66.46
2022-11-08T15:12:16.840Z,66.59
2022-11-08T15:15:01.950Z,67.06
2022-11-08T15:17:32.394Z,67.12
2022-11-08T15:20:22.124Z,67.66
2022-11-08T15:22:52.887Z,67.30
2022-11-08T15:25:30.407Z,68.28
2022-11-08T15:28:13.061Z,68.21
2022-11-08T15:30:43.777Z,68.28
2022-11-08T15:33:25.032Z,68.93
2022-11-08T15:35:52.377Z,68.76
2022-11-08T15:38:33.452Z,68.69
2022-11-08T15:41:03.839Z,68.81
2022-11-08T15:43:30.943Z,68.67
2022-11-08T15:46:02.582Z,69.47
2022-11-08T15:48:33.466Z,70.05
2022-11-08T15:51:00.437Z,69.63
2022-11-08T15:53:28.145Z,69.55
2022-11-08T15:56:04.735Z,69.70
2022-11-08T15:58:37.788Z,69.24
2022-11-08T16:01:05.153Z,69.65
2022-11-08T16:03:33.778Z,69.67
2022-11-08T16:06:01.123Z,69.60
2022-11-08T16:08:28.473Z,69.74
2022-11-08T16:10:59.807Z,69.71
2022-11-08T16:13:34.414Z,69.24
2022-11-08T16:16:03.823Z,69.54
2022-11-08T16:18:34.279Z,69.58
2022-11-08T16:21:01.972Z,69.67
2022-11-08T16:23:29.039Z,69.43
2022-11-08T16:25:57.570Z,69.61
2022-11-08T16:28:29.710Z,69.47
2022-11-08T16:30:57.296Z,69.58
2022-11-08T16:33:26.211Z,69.42
2022-11-08T16:35:58.468Z,69.28
2022-11-08T16:38:29.792Z,69.50
2022-11-08T16:40:56.769Z,69.72
2022-11-08T16:43:23.707Z,69.60
2022-11-08T16:46:05.081Z,69.74
2022-11-08T16:48:33.081Z,69.69
2022-11-08T16:51:02.364Z,69.88
2022-11-08T16:53:30.169Z,69.43
2022-11-08T16:55:58.009Z,70.33
2022-11-08T16:58:26.142Z,70.91
2022-11-08T17:00:53.111Z,71.27
2022-11-08T17:03:23.052Z,70.96
2022-11-08T17:05:50.988Z,70.89
2022-11-08T17:08:18.361Z,70.67
2022-11-08T17:10:45.682Z,70.21
2022-11-08T17:13:17.669Z,69.34
2022-11-08T17:15:45.312Z,69.14
2022-11-08T17:18:14.926Z,69.19
2022-11-08T17:20:42.573Z,69.03
2022-11-08T17:23:10.205Z,71.50
2022-11-08T17:25:39.950Z,72.38
2022-11-08T17:28:08.133Z,72.47
2022-11-08T17:30:35.762Z,71.18
2022-11-08T17:33:02.651Z,71.62
2022-11-08T17:35:29.578Z,70.53
2022-11-08T17:37:56.472Z,69.57
2022-11-08T17:40:23.369Z,69.45
2022-11-08T17:42:50.285Z,69.16
2022-11-08T17:45:17.220Z,69.37
2022-11-08T17:47:44.181Z,69.59
2022-11-08T17:50:11.823Z,69.89
2022-11-08T17:52:39.031Z,70.96
2022-11-08T17:55:06.801Z,70.96
2022-11-08T17:57:33.764Z,70.91
2022-11-08T18:00:00.671Z,70.72
2022-11-08T18:02:28.226Z,71.69
2022-11-08T18:04:57.288Z,71.58
2022-11-08T18:07:24.829Z,71.95
2022-11-08T18:09:51.856Z,72.61
2022-11-08T18:12:19.391Z,71.66
2022-11-08T18:14:46.243Z,71.22
2022-11-08T18:17:13.126Z,71.96
2022-11-08T18:19:40.056Z,73.51
2022-11-08T18:22:06.975Z,75.70
2022-11-08T18:24:33.870Z,75.54
2022-11-08T18:27:00.854Z,74.73
2022-11-08T18:29:28.433Z,73.28
2022-11-08T18:31:55.318Z,74.21
2022-11-08T18:34:22.211Z,74.15
2022-11-08T18:36:49.320Z,74.51
2022-11-08T18:39:19.410Z,74.95
2022-11-08T18:41:46.964Z,74.65
2022-11-08T18:44:13.881Z,74.13
2022-11-08T18:46:43.467Z,74.43
2022-11-08T18:49:10.831Z,75.35
2022-11-08T18:51:37.927Z,75.70
2022-11-08T18:54:04.808Z,75.81
2022-11-08T18:56:31.674Z,75.55
2022-11-08T18:58:58.624Z,75.21
2022-11-08T19:01:25.658Z,75.19
2022-11-08T19:03:52.653Z,75.96
2022-11-08T19:06:19.739Z,75.90
2022-11-08T19:08:46.930Z,76.40
2022-11-08T19:11:14.647Z,76.68
2022-11-08T19:13:42.410Z,76.44
2022-11-08T19:16:13.746Z,76.99
2022-11-08T19:18:41.031Z,76.64
2022-11-08T19:21:12.310Z,76.59
2022-11-08T19:23:39.441Z,76.51
2022-11-08T19:26:10.421Z,76.67
2022-11-08T19:28:40.114Z,76.47
2022-11-08T19:31:07.295Z,77.18
2022-11-08T19:33:35.135Z,76.54
2022-11-08T19:36:07.727Z,76.59
2022-11-08T19:38:39.730Z,76.04
2022-11-08T19:41:19.340Z,76.22
2022-11-08T19:43:47.591Z,76.37
2022-11-08T19:46:16.946Z,76.02
2022-11-08T19:48:46.256Z,76.15
2022-11-08T19:51:16.451Z,75.85
2022-11-08T19:53:44.264Z,75.55
2022-11-08T19:56:14.839Z,74.77
2022-11-08T19:58:42.168Z,75.07
2022-11-08T20:01:16.645Z,75.22
2022-11-08T20:03:44.404Z,74.52
2022-11-08T20:06:12.445Z,74.84
2022-11-08T20:08:39.805Z,74.65
2022-11-08T20:11:14.687Z,74.42
2022-11-08T20:13:42.118Z,74.06
2022-11-08T20:16:20.516Z,74.45
2022-11-08T20:18:47.662Z,74.67
2022-11-08T20:21:16.074Z,74.38
2022-11-08T20:23:43.461Z,74.44
2022-11-08T20:26:18.418Z,73.97
2022-11-08T20:28:55.998Z,74.15
2022-11-08T20:31:24.004Z,74.63
2022-11-08T20:33:53.041Z,74.63
2022-11-08T20:36:22.045Z,74.18
2022-11-08T20:38:49.607Z,74.42
2022-11-08T20:41:18.077Z,74.15
2022-11-08T20:43:46.788Z,74.27
2022-11-08T20:46:16.534Z,74.16
2022-11-08T20:48:44.407Z,73.45
2022-11-08T20:51:17.158Z,73.24
2022-11-08T20:53:44.406Z,73.82
2022-11-08T20:56:19.445Z,74.10
2022-11-08T20:58:47.679Z,74.05
2022-11-08T21:01:20.445Z,73.23
2022-11-08T21:03:48.183Z,73.64
2022-11-08T21:06:18.232Z,74.01
2022-11-08T21:09:09.311Z,74.60
2022-11-08T21:11:34.806Z,74.25
2022-11-08T21:14:03.356Z,73.30
2022-11-08T21:16:38.236Z,72.55
2022-11-08T21:19:14.141Z,73.26
2022-11-08T21:21:41.197Z,74.04
2022-11-08T21:24:08.524Z,75.51
2022-11-08T21:26:36.436Z,75.92
2022-11-08T21:29:04.800Z,75.92
2022-11-08T21:31:32.751Z,75.62
2022-11-08T21:34:00.272Z,75.86
2022-11-08T21:36:29.299Z,76.61
2022-11-08T21:38:56.437Z,77.29
2022-11-08T21:41:23.320Z,76.35
2022-11-08T21:43:50.304Z,75.55
2022-11-08T21:46:19.402Z,75.06
2022-11-08T21:48:46.811Z,75.52
2022-11-08T21:51:14.430Z,75.22
2022-11-08T21:53:49.653Z,75.49
2022-11-08T21:56:22.416Z,74.93
2022-11-08T21:58:49.434Z,74.49
2022-11-08T22:01:16.970Z,74.08
2022-11-08T22:03:44.300Z,74.07
2022-11-08T22:06:11.169Z,73.63
2022-11-08T22:08:38.187Z,75.10
2022-11-08T22:11:05.210Z,73.77
2022-11-08T22:13:32.365Z,72.99
2022-11-08T22:15:59.284Z,73.33
2022-11-08T22:18:43.413Z,73.62
2022-11-08T22:21:31.559Z,73.50
2022-11-08T22:23:58.483Z,74.07
2022-11-08T22:26:25.381Z,73.83
2022-11-08T22:28:52.247Z,73.81
2022-11-08T22:31:19.200Z,75.15
2022-11-08T22:33:46.136Z,75.47
2022-11-08T22:36:13.126Z,74.93
2022-11-08T22:38:40.150Z,75.10
2022-11-08T22:41:07.455Z,75.17
2022-11-08T22:43:35.910Z,76.06
2022-11-08T22:46:03.290Z,75.95
2022-11-08T22:48:30.146Z,75.40
2022-11-08T22:50:57.609Z,76.21
2022-11-08T22:53:24.677Z,76.74
2022-11-08T22:55:51.764Z,76.63
2022-11-08T22:58:18.658Z,76.49
2022-11-08T23:03:30.095Z,76.96
2022-11-08T23:05:58.030Z,77.59
2022-11-08T23:08:26.538Z,77.77
2022-11-08T23:11:12.472Z,77.03
2022-11-08T23:13:58.501Z,77.04
2022-11-08T23:16:38.015Z,76.59
2022-11-08T23:19:24.942Z,77.34
2022-11-08T23:22:11.046Z,77.75
2022-11-08T23:24:38.079Z,76.44
2022-11-08T23:27:24.296Z,76.26
2022-11-08T23:30:09.966Z,76.82
2022-11-08T23:32:36.835Z,76.62
2022-11-08T23:35:03.866Z,76.69
2022-11-08T23:37:31.028Z,77.26
2022-11-08T23:40:16.553Z,77.29
2022-11-08T23:43:02.188Z,78.06
2022-11-08T23:45:29.055Z,78.67
2022-11-08T23:47:56.004Z,78.21
2022-11-08T23:50:22.904Z,77.97
2022-11-08T23:52:49.796Z,78.06
2022-11-08T23:55:16.700Z,78.53
2022-11-08T23:57:43.589Z,78.97
